Bemidji Regional Airport
KBJI : rendu visible

Aérodrome :











RETROUVEZ-NOUS SUR...

 
LOGIN :

S'inscrire | Disclaimer

   EN    FR    IT 

 









Légende :    VFR   VFR Marginal   IFR   IFR Intensif   IFR Très Intensif
Visi : 
Plafond : 
>= 8 km
>= 3000ft
5 à 8 km
1000 à 3000 ft
1500m à 5 km
500 à 1000 ft
800 à 1500m
200 à 500 ft
< 800m
< 200 ft
Symboles :   Orages  Brouillard  Fortes neiges  Fortes précipitations  Vent > 20 kt






- Altitude de l'aérodrome : 1391 ft


KBJI - Bemidji Regional

DERNIER METAR :
  • 031435Z AUTO 25006KT 10SM CLR M06/M08 A2998 RMK AO2 T10561081

METARs EXPIRÉS :
  • 031415Z AUTO 26005KT 10SM CLR M06/M08 A3000 RMK AO2 T10621085
  • 031355Z AUTO 25006KT 10SM CLR M06/M08 A2999 RMK AO2 T10611084
  • 031335Z AUTO 25005KT 10SM CLR M06/M08 A3000 RMK AO2 T10651085
  • 031315Z AUTO 26006KT 10SM CLR M06/M09 A3000 RMK AO2 T10651086
  • 031255Z AUTO 26005KT 10SM CLR M07/M09 A3000 RMK AO2 T10691087
  • 031235Z AUTO 26006KT 10SM CLR M06/M08 A3001 RMK AO2 T10651085
  • 031215Z AUTO 25006KT 10SM CLR M06/M08 A3001 RMK AO2 T10641083
  • 031155Z AUTO 27005KT 10SM CLR M07/M09 A3002 RMK AO2 T10701090 11038 21071

TAF KBJI
Valide du 03 à 12h jusqu'au 04 à 12h UTC


031135Z 0312/0412 26008KT P6SM SKC
FIR KZMP / Amérique du Nord



MET'MAP, la Météo Aéronautique d'un coup d'oeil ! - Copyright ORBIFLY Décembre 2007 - Disclaimer

ORBIFLY MET'MAP TEAM :

Programmation & Développement : Alexandra Zaïnal
Sur une idée originale de : Baudouin d'Aumeries
Assistance à la programmation : Marc-Olivier Méhu
Soutien technique & logistique : Manuel Goepfert

Contact : metmap@orbifly.com




SOURCES & CREDITS :

   NOAA       Earth
Advisory